Time,TemperatureF,DewpointF,PressureIn,WindDirection,WindDirectionDegrees,WindSpeedMPH,WindSpeedGustMPH,Humidity,HourlyPrecipIn,Conditions,Clouds,dailyrainin,SoftwareType,DateUTC
2013-05-23 00:04:00,54.5,51.6,28.88,SE,135,0.0,0.0,90,0.00,,---,0.00,VWS V14.01,2013-05-23 05:04:00,
2013-05-23 00:09:00,54.5,51.6,28.91,West,270,0.0,0.0,90,0.00,,---,0.00,VWS V14.01,2013-05-23 05:09:00,
2013-05-23 00:14:00,54.5,51.6,28.91,WNW,292,0.0,0.0,90,0.00,,---,0.00,VWS V14.01,2013-05-23 05:14:00,
2013-05-23 00:19:00,54.5,51.9,28.91,WSW,248,0.0,0.0,91,0.00,,---,0.00,VWS V14.01,2013-05-23 05:19:00,
2013-05-23 00:24:00,54.5,51.9,28.88,ESE,112,0.0,0.0,91,0.00,,---,0.00,VWS V14.01,2013-05-23 05:24:00,
2013-05-23 00:29:00,54.5,51.9,28.88,West,270,3.1,3.1,91,0.00,,---,0.00,VWS V14.01,2013-05-23 05:29:00,
2013-05-23 00:34:00,54.5,51.9,28.88,WNW,292,0.0,0.0,91,0.00,,---,0.00,VWS V14.01,2013-05-23 05:34:00,
2013-05-23 00:39:00,54.5,51.6,28.91,NE,45,0.0,0.0,90,0.00,,---,0.00,VWS V14.01,2013-05-23 05:39:00,
2013-05-23 00:44:00,54.5,51.6,28.91,WSW,248,0.0,0.9,90,0.00,,---,0.00,VWS V14.01,2013-05-23 05:44:00,
2013-05-23 00:49:00,54.5,51.9,28.91,NW,315,0.0,0.0,91,0.00,,---,0.00,VWS V14.01,2013-05-23 05:49:00,
2013-05-23 00:54:00,54.5,51.9,28.91,WNW,292,0.0,2.0,91,0.00,,---,0.00,VWS V14.01,2013-05-23 05:54:00,
2013-05-23 01:00:00,54.3,51.8,28.91,West,270,0.0,0.0,91,0.00,,---,0.00,VWS V14.01,2013-05-23 06:00:00,
2013-05-23 01:05:00,54.3,51.8,28.91,WSW,248,0.9,0.9,91,0.00,,---,0.00,VWS V14.01,2013-05-23 06:05:00,
2013-05-23 01:10:00,54.1,51.9,28.91,WSW,248,0.0,0.9,92,0.00,,---,0.00,VWS V14.01,2013-05-23 06:10:00,
2013-05-23 01:15:00,54.1,51.9,28.91,WSW,248,0.0,1.1,92,0.00,,---,0.00,VWS V14.01,2013-05-23 06:15:00,
2013-05-23 01:20:00,54.1,52.2,28.91,South,180,2.7,2.7,93,0.00,,---,0.00,VWS V14.01,2013-05-23 06:20:00,
2013-05-23 01:25:00,54.1,52.2,28.91,WNW,292,0.0,0.0,93,0.00,,---,0.00,VWS V14.01,2013-05-23 06:25:00,
2013-05-23 01:30:00,54.1,52.2,28.91,East,90,0.0,1.1,93,0.00,,---,0.00,VWS V14.01,2013-05-23 06:30:00,
2013-05-23 01:35:00,54.1,52.2,28.91,West,270,1.1,2.2,93,0.00,,---,0.00,VWS V14.01,2013-05-23 06:35:00,
2013-05-23 01:40:00,54.1,52.2,28.91,NW,315,0.0,0.0,93,0.00,,---,0.00,VWS V14.01,2013-05-23 06:40:00,
2013-05-23 01:45:00,54.0,52.3,28.91,WSW,248,1.1,1.1,94,0.00,,---,0.00,VWS V14.01,2013-05-23 06:45:00,
2013-05-23 01:50:00,54.0,52.0,28.91,SW,225,0.0,0.0,93,0.00,,---,0.00,VWS V14.01,2013-05-23 06:50:00,
2013-05-23 01:55:00,54.1,52.5,28.91,SSW,202,1.6,2.5,94,0.00,,---,0.00,VWS V14.01,2013-05-23 06:55:00,
2013-05-23 02:00:00,54.1,52.2,28.91,SSW,202,1.1,1.1,93,0.00,,---,0.00,VWS V14.01,2013-05-23 07:00:00,
2013-05-23 02:06:00,54.1,52.2,28.91,WNW,292,0.0,0.0,93,0.00,,---,0.00,VWS V14.01,2013-05-23 07:06:00,
2013-05-23 02:11:00,54.1,52.2,28.91,SSW,202,0.0,0.0,93,0.00,,---,0.00,VWS V14.01,2013-05-23 07:11:00,
2013-05-23 02:16:00,54.1,51.9,28.91,SW,225,0.0,1.6,92,0.00,,---,0.00,VWS V14.01,2013-05-23 07:16:00,
2013-05-23 02:21:00,54.1,51.9,28.94,SSE,158,0.0,1.6,92,0.00,,---,0.00,VWS V14.01,2013-05-23 07:21:00,
2013-05-23 02:26:00,54.1,51.6,28.94,SW,225,0.9,0.9,91,0.00,,---,0.00,VWS V14.01,2013-05-23 07:26:00,
2013-05-23 02:31:00,54.1,51.6,28.94,SSW,202,0.0,0.0,91,0.00,,---,0.00,VWS V14.01,2013-05-23 07:31:00,
2013-05-23 02:36:00,54.1,51.6,28.91,SW,225,1.3,3.4,91,0.00,,---,0.00,VWS V14.01,2013-05-23 07:36:00,
2013-05-23 02:41:00,54.1,51.3,28.91,SW,225,1.6,1.6,90,0.00,,---,0.00,VWS V14.01,2013-05-23 07:41:00,
2013-05-23 02:46:00,54.1,51.3,28.91,West,270,0.0,0.0,90,0.00,,---,0.00,VWS V14.01,2013-05-23 07:46:00,
2013-05-23 02:52:00,54.1,51.3,28.94,WNW,292,0.0,1.1,90,0.00,,---,0.00,VWS V14.01,2013-05-23 07:52:00,
2013-05-23 02:57:00,54.1,51.3,28.94,WNW,292,0.0,0.0,90,0.00,,---,0.00,VWS V14.01,2013-05-23 07:57:00,
2013-05-23 03:02:00,54.1,51.0,28.94,SW,225,1.1,1.1,89,0.00,,---,0.00,VWS V14.01,2013-05-23 08:02:00,
2013-05-23 03:07:00,54.1,51.0,28.94,WNW,292,0.0,0.9,89,0.00,,---,0.00,VWS V14.01,2013-05-23 08:07:00,
2013-05-23 03:12:00,54.1,51.0,28.94,WSW,248,0.9,0.9,89,0.00,,---,0.00,VWS V14.01,2013-05-23 08:12:00,
2013-05-23 03:17:00,54.0,50.8,28.94,SW,225,0.0,1.3,89,0.00,,---,0.00,VWS V14.01,2013-05-23 08:17:00,
2013-05-23 03:22:00,53.8,50.6,28.94,West,270,1.3,1.3,89,0.00,,---,0.00,VWS V14.01,2013-05-23 08:22:00,
2013-05-23 03:27:00,53.4,50.9,28.94,WSW,248,0.0,0.0,91,0.00,,---,0.00,VWS V14.01,2013-05-23 08:27:00,
2013-05-23 03:33:00,53.2,50.7,28.94,West,270,0.0,1.1,91,0.00,,---,0.00,VWS V14.01,2013-05-23 08:33:00,
2013-05-23 03:38:00,53.2,51.0,28.94,SSE,158,0.0,0.0,92,0.00,,---,0.00,VWS V14.01,2013-05-23 08:38:00,
2013-05-23 03:43:00,53.1,51.1,28.94,SSE,158,0.0,0.0,93,0.00,,---,0.00,VWS V14.01,2013-05-23 08:43:00,
2013-05-23 03:48:00,53.1,51.1,28.94,WSW,248,0.0,0.9,93,0.00,,---,0.00,VWS V14.01,2013-05-23 08:48:00,
2013-05-23 03:53:00,52.9,51.2,28.94,WSW,248,0.9,0.9,94,0.00,,---,0.00,VWS V14.01,2013-05-23 08:53:00,
2013-05-23 03:58:00,52.9,51.2,28.94,WSW,248,2.5,2.5,94,0.00,,---,0.00,VWS V14.01,2013-05-23 08:58:00,
2013-05-23 04:03:00,52.9,51.5,28.94,West,270,0.0,1.6,95,0.00,,---,0.00,VWS V14.01,2013-05-23 09:03:00,
2013-05-23 04:08:00,52.9,51.5,28.97,ENE,68,0.0,1.1,95,0.00,,---,0.00,VWS V14.01,2013-05-23 09:08:00,
2013-05-23 04:13:00,52.9,51.5,28.97,SSE,158,0.0,0.0,95,0.00,,---,0.00,VWS V14.01,2013-05-23 09:13:00,
2013-05-23 04:18:00,52.9,51.5,28.97,WSW,248,0.0,0.0,95,0.00,,---,0.00,VWS V14.01,2013-05-23 09:18:00,
2013-05-23 04:23:00,52.9,51.5,28.97,WSW,248,0.0,0.0,95,0.00,,---,0.00,VWS V14.01,2013-05-23 09:23:00,
2013-05-23 04:28:00,52.9,51.5,28.97,SW,225,0.0,0.0,95,0.00,,---,0.00,VWS V14.01,2013-05-23 09:28:00,
2013-05-23 04:33:00,52.9,51.8,28.97,SW,225,3.8,4.9,96,0.00,,---,0.00,VWS V14.01,2013-05-23 09:33:00,
2013-05-23 04:38:00,52.9,51.8,28.97,WSW,248,2.7,2.7,96,0.00,,---,0.00,VWS V14.01,2013-05-23 09:38:00,
2013-05-23 04:44:00,52.9,51.5,28.97,East,90,1.1,2.0,95,0.00,,---,0.00,VWS V14.01,2013-05-23 09:44:00,
2013-05-23 04:49:00,52.9,51.5,28.97,WNW,292,0.0,1.3,95,0.00,,---,0.00,VWS V14.01,2013-05-23 09:49:00,
2013-05-23 04:54:00,52.9,51.5,28.97,SW,225,1.6,1.6,95,0.00,,---,0.00,VWS V14.01,2013-05-23 09:54:00,
2013-05-23 04:59:00,53.1,51.7,28.97,SW,225,2.2,2.2,95,0.00,,---,0.00,VWS V14.01,2013-05-23 09:59:00,
2013-05-23 05:04:00,53.1,51.7,28.97,WNW,292,0.0,0.0,95,0.00,,---,0.00,VWS V14.01,2013-05-23 10:04:00,
2013-05-23 05:09:00,53.1,51.4,28.97,SW,225,0.0,2.5,94,0.00,,---,0.00,VWS V14.01,2013-05-23 10:09:00,
2013-05-23 05:14:00,53.1,51.4,28.97,SW,225,1.3,1.3,94,0.00,,---,0.00,VWS V14.01,2013-05-23 10:14:00,
2013-05-23 05:19:00,53.1,51.4,28.97,SW,225,2.5,2.5,94,0.00,,---,0.00,VWS V14.01,2013-05-23 10:19:00,
2013-05-23 05:24:00,53.2,51.6,29.00,South,180,0.0,3.1,94,0.00,,---,0.00,VWS V14.01,2013-05-23 10:24:00,
2013-05-23 05:29:00,53.2,51.6,29.00,WSW,248,1.6,1.6,94,0.00,,---,0.00,VWS V14.01,2013-05-23 10:29:00,
2013-05-23 05:34:00,53.2,51.6,29.00,SW,225,2.0,2.0,94,0.00,,---,0.00,VWS V14.01,2013-05-23 10:34:00,
2013-05-23 05:39:00,53.2,51.3,29.00,ESE,112,0.0,0.0,93,0.00,,---,0.00,VWS V14.01,2013-05-23 10:39:00,
2013-05-23 05:45:00,53.2,51.3,29.00,WSW,248,0.0,0.0,93,0.00,,---,0.00,VWS V14.01,2013-05-23 10:45:00,
2013-05-23 05:50:00,53.4,51.5,29.00,SW,225,0.0,0.0,93,0.00,,---,0.00,VWS V14.01,2013-05-23 10:50:00,
2013-05-23 05:55:00,53.4,51.5,29.00,ESE,112,1.3,2.2,93,0.00,,---,0.00,VWS V14.01,2013-05-23 10:55:00,
2013-05-23 06:00:00,53.4,51.2,29.00,SSW,202,1.3,1.3,92,0.00,,---,0.00,VWS V14.01,2013-05-23 11:00:00,
2013-05-23 06:05:00,53.6,51.3,29.00,ESE,112,2.0,2.0,92,0.00,,---,0.00,VWS V14.01,2013-05-23 11:05:00,
2013-05-23 06:10:00,53.6,51.0,29.03,SW,225,3.8,3.8,91,0.00,,---,0.00,VWS V14.01,2013-05-23 11:10:00,
2013-05-23 06:15:00,53.6,51.0,29.03,WSW,248,0.0,0.0,91,0.00,,---,0.00,VWS V14.01,2013-05-23 11:15:00,
2013-05-23 06:20:00,53.8,51.2,29.03,ENE,68,0.0,0.0,91,0.00,,---,0.00,VWS V14.01,2013-05-23 11:20:00,
2013-05-23 06:25:00,53.8,50.9,29.03,SSW,202,2.2,3.1,90,0.00,,---,0.00,VWS V14.01,2013-05-23 11:25:00,
2013-05-23 06:31:00,53.8,50.9,29.03,SE,135,0.0,0.0,90,0.00,,---,0.00,VWS V14.01,2013-05-23 11:31:00,
2013-05-23 06:36:00,53.8,50.9,29.03,SW,225,0.0,3.4,90,0.00,,---,0.00,VWS V14.01,2013-05-23 11:36:00,
2013-05-23 06:41:00,54.0,51.1,29.03,WSW,248,2.5,2.5,90,0.00,,---,0.00,VWS V14.01,2013-05-23 11:41:00,
2013-05-23 06:46:00,54.0,51.1,29.03,SW,225,0.0,2.7,90,0.00,,---,0.00,VWS V14.01,2013-05-23 11:46:00,
2013-05-23 06:51:00,54.0,51.1,29.03,ESE,112,1.3,2.9,90,0.00,,---,0.00,VWS V14.01,2013-05-23 11:51:00,
2013-05-23 06:56:00,54.1,51.3,29.03,East,90,0.0,2.2,90,0.00,,---,0.00,VWS V14.01,2013-05-23 11:56:00,
2013-05-23 07:01:00,54.1,51.3,29.03,SSE,158,1.6,1.6,90,0.00,,---,0.00,VWS V14.01,2013-05-23 12:01:00,
2013-05-23 07:06:00,54.3,51.5,29.03,WSW,248,2.0,2.0,90,0.00,,---,0.00,VWS V14.01,2013-05-23 12:06:00,
2013-05-23 07:11:00,54.5,51.3,29.03,WSW,248,0.0,0.0,89,0.00,,---,0.00,VWS V14.01,2013-05-23 12:11:00,
2013-05-23 07:16:00,54.5,51.3,29.03,WSW,248,1.3,1.3,89,0.00,,---,0.00,VWS V14.01,2013-05-23 12:16:00,
2013-05-23 07:21:00,54.5,51.0,29.06,WNW,292,2.9,2.9,88,0.00,,---,0.00,VWS V14.01,2013-05-23 12:21:00,
2013-05-23 07:26:00,54.7,51.2,29.06,East,90,0.0,0.0,88,0.00,,---,0.00,VWS V14.01,2013-05-23 12:26:00,
2013-05-23 07:31:00,54.7,51.2,29.06,East,90,1.3,2.7,88,0.00,,---,0.00,VWS V14.01,2013-05-23 12:31:00,
2013-05-23 07:37:00,54.9,51.4,29.09,WSW,248,0.0,0.0,88,0.00,,---,0.00,VWS V14.01,2013-05-23 12:37:00,
2013-05-23 07:42:00,54.9,51.1,29.09,SSW,202,2.5,3.6,87,0.00,,---,0.00,VWS V14.01,2013-05-23 12:42:00,
2013-05-23 07:47:00,54.9,51.1,29.09,SW,225,0.0,0.0,87,0.00,,---,0.00,VWS V14.01,2013-05-23 12:47:00,
2013-05-23 07:52:00,55.0,51.2,29.09,East,90,0.0,0.0,87,0.00,,---,0.00,VWS V14.01,2013-05-23 12:52:00,
2013-05-23 07:57:00,55.2,51.1,29.09,NE,45,2.2,2.9,86,0.00,,---,0.00,VWS V14.01,2013-05-23 12:57:00,
2013-05-23 08:02:00,55.4,51.0,29.09,ENE,68,0.0,2.0,85,0.00,,---,0.00,VWS V14.01,2013-05-23 13:02:00,
2013-05-23 08:07:00,55.4,51.0,29.09,West,270,0.0,0.9,85,0.00,,---,0.00,VWS V14.01,2013-05-23 13:07:00,
2013-05-23 08:12:00,55.6,51.2,29.09,WSW,248,1.1,1.1,85,0.00,,---,0.00,VWS V14.01,2013-05-23 13:12:00,
2013-05-23 08:17:00,55.8,50.7,29.09,East,90,2.0,2.0,83,0.00,,---,0.00,VWS V14.01,2013-05-23 13:17:00,
2013-05-23 08:22:00,55.8,50.4,29.09,SW,225,2.9,2.9,82,0.00,,---,0.00,VWS V14.01,2013-05-23 13:22:00,
2013-05-23 08:27:00,55.8,50.4,29.09,WSW,248,2.0,2.0,82,0.00,,---,0.00,VWS V14.01,2013-05-23 13:27:00,
2013-05-23 08:33:00,55.9,50.5,29.09,SW,225,0.0,0.0,82,0.00,,---,0.00,VWS V14.01,2013-05-23 13:33:00,
2013-05-23 08:38:00,55.9,50.5,29.09,West,270,0.0,0.0,82,0.00,,---,0.00,VWS V14.01,2013-05-23 13:38:00,
2013-05-23 08:43:00,55.9,50.5,29.09,South,180,1.1,1.6,82,0.00,,---,0.00,VWS V14.01,2013-05-23 13:43:00,
2013-05-23 08:48:00,55.9,49.9,29.09,SW,225,1.6,1.6,80,0.00,,---,0.00,VWS V14.01,2013-05-23 13:48:00,
2013-05-23 08:53:00,55.9,49.9,29.09,East,90,0.0,1.3,80,0.00,,---,0.00,VWS V14.01,2013-05-23 13:53:00,
2013-05-23 08:58:00,55.9,49.9,29.09,SW,225,2.9,2.9,80,0.00,,---,0.00,VWS V14.01,2013-05-23 13:58:00,
2013-05-23 09:03:00,56.1,49.7,29.09,West,270,2.0,2.0,79,0.00,,---,0.00,VWS V14.01,2013-05-23 14:03:00,
2013-05-23 09:08:00,56.3,49.9,29.12,WSW,248,2.0,2.0,79,0.00,,---,0.00,VWS V14.01,2013-05-23 14:08:00,
2013-05-23 09:13:00,56.3,49.5,29.12,ESE,112,0.0,0.0,78,0.00,,---,0.00,VWS V14.01,2013-05-23 14:13:00,
2013-05-23 09:18:00,56.5,49.7,29.12,ENE,68,2.0,2.0,78,0.00,,---,0.00,VWS V14.01,2013-05-23 14:18:00,
2013-05-23 09:23:00,56.8,50.1,29.12,WNW,292,0.0,0.0,78,0.00,,---,0.00,VWS V14.01,2013-05-23 14:23:00,
2013-05-23 09:28:00,57.0,49.9,29.12,SSW,202,1.1,2.2,77,0.00,,---,0.00,VWS V14.01,2013-05-23 14:28:00,
2013-05-23 09:34:00,57.4,49.9,29.12,West,270,3.1,3.1,76,0.00,,---,0.00,VWS V14.01,2013-05-23 14:34:00,
2013-05-23 09:39:00,57.6,49.3,29.12,ESE,112,1.6,2.5,74,0.00,,---,0.00,VWS V14.01,2013-05-23 14:39:00,
2013-05-23 09:44:00,57.9,49.7,29.12,ESE,112,0.0,1.3,74,0.00,,---,0.00,VWS V14.01,2013-05-23 14:44:00,
2013-05-23 09:49:00,58.3,50.0,29.12,East,90,2.2,2.2,74,0.00,,---,0.00,VWS V14.01,2013-05-23 14:49:00,
2013-05-23 09:54:00,58.5,49.8,29.12,West,270,4.5,4.5,73,0.00,,---,0.00,VWS V14.01,2013-05-23 14:54:00,
2013-05-23 09:59:00,58.6,49.7,29.12,WSW,248,2.5,2.5,72,0.00,,---,0.00,VWS V14.01,2013-05-23 14:59:00,
2013-05-23 10:04:00,58.6,49.7,29.12,East,90,1.1,2.0,72,0.00,,---,0.00,VWS V14.01,2013-05-23 15:04:00,
2013-05-23 10:09:00,58.8,49.5,29.12,NE,45,1.6,3.1,71,0.00,,---,0.00,VWS V14.01,2013-05-23 15:09:00,
2013-05-23 10:14:00,59.0,49.2,29.12,West,270,1.3,1.3,70,0.00,,---,0.00,VWS V14.01,2013-05-23 15:14:00,
2013-05-23 10:19:00,59.4,49.2,29.12,WSW,248,1.1,1.1,69,0.00,,---,0.00,VWS V14.01,2013-05-23 15:19:00,
2013-05-23 10:24:00,59.9,49.3,29.14,ENE,68,1.1,1.1,68,0.00,,---,0.00,VWS V14.01,2013-05-23 15:24:00,
2013-05-23 10:30:00,60.4,49.8,29.14,ESE,112,3.4,3.4,68,0.00,,---,0.00,VWS V14.01,2013-05-23 15:30:00,
2013-05-23 10:35:00,60.3,49.7,29.14,WSW,248,0.0,2.5,68,0.00,,---,0.00,VWS V14.01,2013-05-23 15:35:00,
2013-05-23 10:40:00,60.4,50.2,29.14,East,90,2.2,2.2,69,0.00,,---,0.00,VWS V14.01,2013-05-23 15:40:00,
2013-05-23 10:45:00,60.6,49.6,29.14,WSW,248,2.5,3.1,67,0.00,,---,0.00,VWS V14.01,2013-05-23 15:45:00,
2013-05-23 10:50:00,60.6,49.2,29.14,West,270,0.0,1.3,66,0.00,,---,0.00,VWS V14.01,2013-05-23 15:50:00,
2013-05-23 10:55:00,60.6,48.8,29.14,East,90,1.1,1.6,65,0.00,,---,0.00,VWS V14.01,2013-05-23 15:55:00,
2013-05-23 11:00:00,60.6,48.8,29.14,WSW,248,2.2,2.2,65,0.00,,---,0.00,VWS V14.01,2013-05-23 16:00:00,
2013-05-23 11:05:00,61.0,49.5,29.14,East,90,0.0,0.0,66,0.00,,---,0.00,VWS V14.01,2013-05-23 16:05:00,
2013-05-23 11:10:00,61.2,49.3,29.14,SE,135,1.1,1.1,65,0.00,,---,0.00,VWS V14.01,2013-05-23 16:10:00,
2013-05-23 11:15:00,61.2,48.9,29.14,East,90,0.9,2.9,64,0.00,,---,0.00,VWS V14.01,2013-05-23 16:15:00,
2013-05-23 11:20:00,61.5,49.2,29.14,SSW,202,0.9,2.2,64,0.00,,---,0.00,VWS V14.01,2013-05-23 16:20:00,
2013-05-23 11:25:00,62.1,49.8,29.14,SW,225,1.1,1.1,64,0.00,,---,0.00,VWS V14.01,2013-05-23 16:25:00,
2013-05-23 11:30:00,62.6,49.8,29.14,ESE,112,2.9,2.9,63,0.00,,---,0.00,VWS V14.01,2013-05-23 16:30:00,
2013-05-23 11:35:00,62.6,47.6,29.14,South,180,0.0,0.0,58,0.00,,---,0.00,VWS V14.01,2013-05-23 16:35:00,
2013-05-23 11:40:00,62.8,48.7,29.14,East,90,0.0,0.0,60,0.00,,---,0.00,VWS V14.01,2013-05-23 16:40:00,
2013-05-23 11:46:00,63.1,49.9,29.14,SW,225,0.0,0.0,62,0.00,,---,0.00,VWS V14.01,2013-05-23 16:46:00,
2013-05-23 11:51:00,63.7,50.4,29.14,ESE,112,0.0,0.0,62,0.00,,---,0.00,VWS V14.01,2013-05-23 16:51:00,
2013-05-23 11:56:00,64.2,50.1,29.14,ENE,68,0.0,0.0,60,0.00,,---,0.00,VWS V14.01,2013-05-23 16:56:00,
2013-05-23 12:01:00,64.2,48.7,29.14,ESE,112,0.0,0.0,57,0.00,,---,0.00,VWS V14.01,2013-05-23 17:01:00,
2013-05-23 12:06:00,64.8,49.2,29.14,SW,225,0.0,0.0,57,0.00,,---,0.00,VWS V14.01,2013-05-23 17:06:00,
2013-05-23 12:11:00,65.1,49.0,29.14,SE,135,0.0,0.0,56,0.00,,---,0.00,VWS V14.01,2013-05-23 17:11:00,
2013-05-23 12:16:00,64.8,47.8,29.14,WSW,248,0.0,0.0,54,0.00,,---,0.00,VWS V14.01,2013-05-23 17:16:00,
2013-05-23 12:21:00,65.1,47.1,29.14,ENE,68,0.0,0.0,52,0.00,,---,0.00,VWS V14.01,2013-05-23 17:21:00,
2013-05-23 12:26:00,65.5,47.9,29.14,ESE,112,0.0,0.0,53,0.00,,---,0.00,VWS V14.01,2013-05-23 17:26:00,
2013-05-23 12:31:00,65.5,48.9,29.14,WSW,248,0.0,0.0,55,0.00,,---,0.00,VWS V14.01,2013-05-23 17:31:00,
2013-05-23 12:36:00,65.7,48.1,29.14,ESE,112,2.0,2.0,53,0.00,,---,0.00,VWS V14.01,2013-05-23 17:36:00,
2013-05-23 12:41:00,66.0,48.4,29.14,West,270,0.0,0.0,53,0.00,,---,0.00,VWS V14.01,2013-05-23 17:41:00,
2013-05-23 12:46:00,66.4,47.2,29.14,West,270,0.0,0.0,50,0.00,,---,0.00,VWS V14.01,2013-05-23 17:46:00,
2013-05-23 12:52:00,66.7,47.5,29.14,WSW,248,0.0,0.0,50,0.00,,---,0.00,VWS V14.01,2013-05-23 17:52:00,
2013-05-23 12:57:00,67.1,47.9,29.14,NE,45,0.0,0.0,50,0.00,,---,0.00,VWS V14.01,2013-05-23 17:57:00,
2013-05-23 13:02:00,67.5,47.7,29.14,WSW,248,0.0,0.0,49,0.00,,---,0.00,VWS V14.01,2013-05-23 18:02:00,
2013-05-23 13:07:00,67.3,45.8,29.14,WSW,248,2.5,5.6,46,0.00,,---,0.00,VWS V14.01,2013-05-23 18:07:00,
2013-05-23 13:12:00,67.6,46.7,29.14,ESE,112,0.9,0.9,47,0.00,,---,0.00,VWS V14.01,2013-05-23 18:12:00,
2013-05-23 13:17:00,67.8,46.9,29.14,ESE,112,0.0,0.0,47,0.00,,---,0.00,VWS V14.01,2013-05-23 18:17:00,
2013-05-23 13:22:00,67.8,46.3,29.14,ESE,112,0.0,0.0,46,0.00,,---,0.00,VWS V14.01,2013-05-23 18:22:00,
2013-05-23 13:27:00,68.0,47.0,29.14,SSW,202,0.0,0.0,47,0.00,,---,0.00,VWS V14.01,2013-05-23 18:27:00,
2013-05-23 13:32:00,67.8,46.9,29.14,SW,225,1.1,1.1,47,0.00,,---,0.00,VWS V14.01,2013-05-23 18:32:00,
2013-05-23 13:38:00,68.0,46.5,29.14,SSE,158,0.0,0.0,46,0.00,,---,0.00,VWS V14.01,2013-05-23 18:38:00,
2013-05-23 13:43:00,68.0,45.9,29.14,WSW,248,0.0,0.0,45,0.00,,---,0.00,VWS V14.01,2013-05-23 18:43:00,
2013-05-23 13:48:00,67.8,44.5,29.14,West,270,2.2,2.2,43,0.00,,---,0.00,VWS V14.01,2013-05-23 18:48:00,
2013-05-23 13:53:00,68.4,45.0,29.17,SW,225,3.8,3.8,43,0.00,,---,0.00,VWS V14.01,2013-05-23 18:53:00,
2013-05-23 13:58:00,68.9,45.5,29.17,East,90,0.0,0.0,43,0.00,,---,0.00,VWS V14.01,2013-05-23 18:58:00,
2013-05-23 14:03:00,69.1,44.4,29.17,SW,225,1.3,3.6,41,0.00,,---,0.00,VWS V14.01,2013-05-23 19:03:00,
2013-05-23 14:08:00,69.8,46.3,29.14,WSW,248,0.0,3.1,43,0.00,,---,0.00,VWS V14.01,2013-05-23 19:08:00,
2013-05-23 14:13:00,69.6,46.2,29.14,East,90,0.0,2.0,43,0.00,,---,0.00,VWS V14.01,2013-05-23 19:13:00,
2013-05-23 14:18:00,70.0,45.9,29.14,ENE,68,0.0,0.0,42,0.00,,---,0.00,VWS V14.01,2013-05-23 19:18:00,
2013-05-23 14:23:00,70.7,45.2,29.14,East,90,0.0,0.0,40,0.00,,---,0.00,VWS V14.01,2013-05-23 19:23:00,
2013-05-23 14:28:00,70.9,44.7,29.14,NE,45,0.0,0.0,39,0.00,,---,0.00,VWS V14.01,2013-05-23 19:28:00,
2013-05-23 14:33:00,71.6,45.4,29.14,East,90,0.0,0.0,39,0.00,,---,0.00,VWS V14.01,2013-05-23 19:33:00,
2013-05-23 14:38:00,71.6,45.4,29.14,East,90,0.0,0.0,39,0.00,,---,0.00,VWS V14.01,2013-05-23 19:38:00,
2013-05-23 14:44:00,71.4,45.9,29.14,SW,225,1.1,1.1,40,0.00,,---,0.00,VWS V14.01,2013-05-23 19:44:00,
2013-05-23 14:49:00,71.1,44.2,29.14,South,180,0.0,0.0,38,0.00,,---,0.00,VWS V14.01,2013-05-23 19:49:00,
2013-05-23 14:54:00,70.5,44.4,29.14,East,90,0.0,0.0,39,0.00,,---,0.00,VWS V14.01,2013-05-23 19:54:00,
2013-05-23 14:59:00,70.0,43.9,29.14,WNW,292,0.0,0.0,39,0.00,,---,0.00,VWS V14.01,2013-05-23 19:59:00,
2013-05-23 15:04:00,70.0,42.5,29.14,East,90,0.0,0.0,37,0.00,,---,0.00,VWS V14.01,2013-05-23 20:04:00,
2013-05-23 15:09:00,69.8,43.1,29.14,SSE,158,0.0,0.0,38,0.00,,---,0.00,VWS V14.01,2013-05-23 20:09:00,
2013-05-23 15:14:00,69.8,43.1,29.14,SW,225,2.5,2.7,38,0.00,,---,0.00,VWS V14.01,2013-05-23 20:14:00,
2013-05-23 15:19:00,69.1,43.1,29.14,East,90,0.0,0.0,39,0.00,,---,0.00,VWS V14.01,2013-05-23 20:19:00,
2013-05-23 15:24:00,68.9,42.3,29.17,East,90,0.0,0.0,38,0.00,,---,0.00,VWS V14.01,2013-05-23 20:24:00,
2013-05-23 15:29:00,68.9,42.3,29.17,SW,225,1.1,1.1,38,0.00,,---,0.00,VWS V14.01,2013-05-23 20:29:00,
2013-05-23 15:34:00,68.9,41.6,29.17,ENE,68,0.0,0.0,37,0.00,,---,0.00,VWS V14.01,2013-05-23 20:34:00,
2013-05-23 15:39:00,68.9,41.6,29.14,WNW,292,2.7,2.7,37,0.00,,---,0.00,VWS V14.01,2013-05-23 20:39:00,
2013-05-23 15:44:00,68.7,41.4,29.14,WSW,248,0.0,0.0,37,0.00,,---,0.00,VWS V14.01,2013-05-23 20:44:00,
2013-05-23 15:49:00,68.9,40.2,29.14,East,90,0.0,0.0,35,0.00,,---,0.00,VWS V14.01,2013-05-23 20:49:00,
2013-05-23 15:54:00,68.9,40.9,29.14,ENE,68,0.0,0.0,36,0.00,,---,0.00,VWS V14.01,2013-05-23 20:54:00,
2013-05-23 15:59:00,68.9,41.6,29.14,WSW,248,2.2,2.2,37,0.00,,---,0.00,VWS V14.01,2013-05-23 20:59:00,
2013-05-23 16:04:00,68.9,40.9,29.14,SW,225,1.3,1.3,36,0.00,,---,0.00,VWS V14.01,2013-05-23 21:04:00,
2013-05-23 16:09:00,68.9,40.9,29.17,SW,225,0.0,0.0,36,0.00,,---,0.00,VWS V14.01,2013-05-23 21:09:00,
2013-05-23 16:14:00,68.7,40.0,29.17,WSW,248,4.3,4.3,35,0.00,,---,0.00,VWS V14.01,2013-05-23 21:14:00,
2013-05-23 16:20:00,68.7,40.0,29.17,ESE,112,0.0,0.0,35,0.00,,---,0.00,VWS V14.01,2013-05-23 21:20:00,
2013-05-23 16:25:00,68.5,40.5,29.14,West,270,0.0,0.0,36,0.00,,---,0.00,VWS V14.01,2013-05-23 21:25:00,
2013-05-23 16:30:00,68.5,40.5,29.14,NNE,22,0.0,0.0,36,0.00,,---,0.00,VWS V14.01,2013-05-23 21:30:00,
2013-05-23 16:35:00,68.5,40.5,29.14,East,90,0.0,0.0,36,0.00,,---,0.00,VWS V14.01,2013-05-23 21:35:00,
2013-05-23 16:40:00,68.5,40.5,29.14,NE,45,0.0,0.0,36,0.00,,---,0.00,VWS V14.01,2013-05-23 21:40:00,
2013-05-23 16:45:00,68.7,40.0,29.14,ENE,68,0.0,0.0,35,0.00,,---,0.00,VWS V14.01,2013-05-23 21:45:00,
2013-05-23 16:50:00,68.5,39.8,29.14,East,90,0.0,0.0,35,0.00,,---,0.00,VWS V14.01,2013-05-23 21:50:00,
2013-05-23 16:55:00,68.5,40.5,29.17,ENE,68,0.0,0.0,36,0.00,,---,0.00,VWS V14.01,2013-05-23 21:55:00,
2013-05-23 17:00:00,68.5,39.8,29.17,East,90,0.0,0.0,35,0.00,,---,0.00,VWS V14.01,2013-05-23 22:00:00,
2013-05-23 17:05:00,68.4,39.7,29.17,SSW,202,0.0,0.0,35,0.00,,---,0.00,VWS V14.01,2013-05-23 22:05:00,
2013-05-23 17:10:00,68.4,39.7,29.17,East,90,0.0,0.0,35,0.00,,---,0.00,VWS V14.01,2013-05-23 22:10:00,
2013-05-23 17:15:00,68.4,39.7,29.17,WSW,248,0.0,0.0,35,0.00,,---,0.00,VWS V14.01,2013-05-23 22:15:00,
2013-05-23 17:20:00,68.2,39.5,29.17,SW,225,0.0,0.0,35,0.00,,---,0.00,VWS V14.01,2013-05-23 22:20:00,
2013-05-23 17:25:00,68.2,39.5,29.17,WSW,248,0.0,0.0,35,0.00,,---,0.00,VWS V14.01,2013-05-23 22:25:00,
2013-05-23 17:30:00,68.2,39.5,29.17,East,90,0.0,0.0,35,0.00,,---,0.00,VWS V14.01,2013-05-23 22:30:00,
2013-05-23 17:35:00,68.2,39.5,29.17,NE,45,0.0,0.0,35,0.00,,---,0.00,VWS V14.01,2013-05-23 22:35:00,
2013-05-23 17:40:00,68.2,39.5,29.17,ENE,68,0.0,0.0,35,0.00,,---,0.00,VWS V14.01,2013-05-23 22:40:00,
2013-05-23 17:45:00,68.2,39.5,29.17,ENE,68,0.0,0.0,35,0.00,,---,0.00,VWS V14.01,2013-05-23 22:45:00,
2013-05-23 17:51:00,68.0,40.1,29.17,East,90,0.0,0.0,36,0.00,,---,0.00,VWS V14.01,2013-05-23 22:51:00,
2013-05-23 17:56:00,68.0,40.1,29.17,ESE,112,0.0,0.0,36,0.00,,---,0.00,VWS V14.01,2013-05-23 22:56:00,
2013-05-23 18:01:00,67.8,39.9,29.17,East,90,0.0,0.0,36,0.00,,---,0.00,VWS V14.01,2013-05-23 23:01:00,
2013-05-23 18:06:00,67.8,39.9,29.17,ENE,68,0.0,0.0,36,0.00,,---,0.00,VWS V14.01,2013-05-23 23:06:00,
2013-05-23 18:11:00,67.8,39.9,29.17,West,270,0.0,0.0,36,0.00,,---,0.00,VWS V14.01,2013-05-23 23:11:00,
2013-05-23 18:16:00,67.6,39.8,29.17,West,270,0.0,0.0,36,0.00,,---,0.00,VWS V14.01,2013-05-23 23:16:00,
2013-05-23 18:21:00,67.6,39.0,29.17,WSW,248,2.9,2.9,35,0.00,,---,0.00,VWS V14.01,2013-05-23 23:21:00,
2013-05-23 18:26:00,67.5,39.6,29.17,SSW,202,0.0,0.0,36,0.00,,---,0.00,VWS V14.01,2013-05-23 23:26:00,
2013-05-23 18:31:00,67.5,39.6,29.17,South,180,0.0,0.0,36,0.00,,---,0.00,VWS V14.01,2013-05-23 23:31:00,
2013-05-23 18:36:00,67.5,39.6,29.17,ESE,112,0.0,0.0,36,0.00,,---,0.00,VWS V14.01,2013-05-23 23:36:00,
2013-05-23 18:41:00,67.3,39.4,29.17,WSW,248,3.4,3.4,36,0.00,,---,0.00,VWS V14.01,2013-05-23 23:41:00,
2013-05-23 18:46:00,67.3,39.4,29.17,WSW,248,0.0,0.0,36,0.00,,---,0.00,VWS V14.01,2013-05-23 23:46:00,